createdAt,value
2022-10-23T00:00:17.844Z,96.45
2022-10-23T00:02:45.429Z,96.92
2022-10-23T00:05:12.771Z,96.69
2022-10-23T00:07:39.848Z,96.83
2022-10-23T00:10:07.099Z,96.58
2022-10-23T00:12:34.261Z,97.83
2022-10-23T00:15:01.321Z,97.79
2022-10-23T00:17:28.392Z,97.82
2022-10-23T00:19:55.403Z,98.05
2022-10-23T00:22:22.740Z,98.19
2022-10-23T00:24:49.840Z,98.36
2022-10-23T00:27:16.887Z,98.13
2022-10-23T00:29:45.054Z,98.14
2022-10-23T00:32:12.152Z,98.54
2022-10-23T00:34:39.178Z,98.33
2022-10-23T00:37:06.146Z,98.44
2022-10-23T00:39:33.299Z,98.66
2022-10-23T00:42:00.383Z,97.41
2022-10-23T00:44:30.583Z,97.56
2022-10-23T00:46:59.056Z,97.97
2022-10-23T00:49:28.065Z,97.68
2022-10-23T00:52:01.152Z,98.58
2022-10-23T00:54:31.447Z,98.81
2022-10-23T00:56:59.992Z,97.97
2022-10-23T00:59:27.462Z,98.66
2022-10-23T01:01:54.708Z,98.89
2022-10-23T01:04:22.404Z,97.01
2022-10-23T01:06:58.548Z,97.57
2022-10-23T01:09:25.602Z,97.95
2022-10-23T01:11:57.400Z,97.83
2022-10-23T01:14:31.892Z,97.54
2022-10-23T01:17:05.000Z,97.50
2022-10-23T01:19:46.607Z,97.80
2022-10-23T01:22:16.678Z,97.57
2022-10-23T01:24:51.670Z,97.82
2022-10-23T01:27:27.081Z,97.64
2022-10-23T01:29:59.976Z,98.48
2022-10-23T01:32:37.430Z,98.91
2022-10-23T01:35:11.807Z,98.85
2022-10-23T01:37:42.668Z,99.29
2022-10-23T01:40:15.083Z,99.03
2022-10-23T01:42:46.211Z,98.95
2022-10-23T01:45:21.696Z,99.67
2022-10-23T01:47:49.558Z,100.00
2022-10-23T01:50:19.689Z,99.34
2022-10-23T01:52:49.071Z,99.33
2022-10-23T01:55:17.452Z,99.25
2022-10-23T01:57:45.741Z,99.54
2022-10-23T02:00:14.460Z,99.40
2022-10-23T02:02:55.490Z,99.63
2022-10-23T02:05:29.707Z,99.97
2022-10-23T02:07:58.525Z,99.67
2022-10-23T02:10:32.373Z,99.93
2022-10-23T02:13:07.755Z,98.67
2022-10-23T02:15:38.534Z,99.13
2022-10-23T02:18:14.920Z,99.03
2022-10-23T02:20:53.485Z,98.85
2022-10-23T02:23:22.497Z,99.64
2022-10-23T02:25:55.489Z,99.26
2022-10-23T02:28:28.388Z,99.38
2022-10-23T02:30:59.535Z,99.68
2022-10-23T02:33:28.100Z,99.70
2022-10-23T02:35:55.333Z,100.00
2022-10-23T02:38:31.158Z,100.00
2022-10-23T02:41:01.047Z,100.00
2022-10-23T02:43:34.406Z,99.95
2022-10-23T02:46:09.089Z,100.00
2022-10-23T02:48:42.949Z,100.00
2022-10-23T02:51:22.532Z,100.00
2022-10-23T02:53:59.502Z,100.00
2022-10-23T02:56:34.544Z,100.00
2022-10-23T02:59:06.942Z,100.00
2022-10-23T03:01:50.893Z,100.00
2022-10-23T03:04:19.307Z,100.00
2022-10-23T03:06:49.364Z,100.00
2022-10-23T03:09:17.809Z,100.00
2022-10-23T03:11:45.065Z,100.00
2022-10-23T03:14:13.425Z,100.00
2022-10-23T03:16:40.460Z,100.00
2022-10-23T03:19:09.457Z,100.00
2022-10-23T03:21:37.216Z,100.00
2022-10-23T03:24:08.277Z,100.00
2022-10-23T03:26:40.804Z,100.00
2022-10-23T03:29:07.913Z,100.00
2022-10-23T03:31:41.367Z,100.00
2022-10-23T03:34:11.131Z,100.00
2022-10-23T03:36:40.391Z,100.00
2022-10-23T03:39:08.725Z,100.00
2022-10-23T03:41:35.719Z,100.00
2022-10-23T03:46:35.562Z,100.00
2022-10-23T03:49:02.604Z,100.00
2022-10-23T03:51:29.824Z,100.00
2022-10-23T03:53:57.985Z,100.00
2022-10-23T03:56:25.062Z,100.00
2022-10-23T03:58:52.098Z,100.00
2022-10-23T04:01:19.519Z,100.00
2022-10-23T04:03:46.620Z,100.00
2022-10-23T04:06:15.982Z,100.00
2022-10-23T04:08:44.272Z,100.00
2022-10-23T04:11:16.204Z,100.00
2022-10-23T04:13:45.951Z,100.00
2022-10-23T04:16:13.010Z,100.00
2022-10-23T04:18:40.962Z,100.00
2022-10-23T04:21:10.964Z,100.00
2022-10-23T04:23:39.280Z,100.00
2022-10-23T04:26:12.240Z,100.00
2022-10-23T04:28:39.524Z,100.00
2022-10-23T04:31:06.601Z,100.00
2022-10-23T04:33:33.932Z,100.00
2022-10-23T04:36:01.305Z,100.00
2022-10-23T04:38:28.310Z,100.00
2022-10-23T04:40:55.442Z,99.83
2022-10-23T04:43:23.097Z,99.63
2022-10-23T04:45:50.177Z,100.00
2022-10-23T04:48:17.441Z,99.82
2022-10-23T04:51:23.252Z,98.68
2022-10-23T04:54:12.875Z,98.77
2022-10-23T04:56:47.373Z,99.46
2022-10-23T04:59:19.654Z,99.97
2022-10-23T05:01:47.367Z,99.94
2022-10-23T05:04:14.502Z,99.71
2022-10-23T05:07:00.272Z,99.75
2022-10-23T05:09:44.385Z,99.59
2022-10-23T05:12:26.548Z,100.00
2022-10-23T05:14:54.021Z,100.00
2022-10-23T05:17:23.657Z,100.00
2022-10-23T05:19:52.959Z,100.00
2022-10-23T05:22:23.945Z,100.00
2022-10-23T05:24:53.513Z,100.00
2022-10-23T05:27:25.612Z,100.00
2022-10-23T05:29:54.631Z,100.00
2022-10-23T05:32:27.346Z,100.00
2022-10-23T05:34:54.681Z,100.00
2022-10-23T05:37:25.312Z,100.00
2022-10-23T05:40:01.495Z,100.00
2022-10-23T05:42:29.109Z,100.00
2022-10-23T05:44:57.408Z,100.00
2022-10-23T05:47:45.381Z,100.00
2022-10-23T05:50:26.695Z,100.00
2022-10-23T05:53:17.144Z,100.00
2022-10-23T05:56:07.117Z,100.00
2022-10-23T05:58:45.729Z,100.00
2022-10-23T06:01:31.713Z,100.00
2022-10-23T06:04:04.041Z,100.00
2022-10-23T06:06:48.395Z,100.00
2022-10-23T06:09:16.750Z,100.00
2022-10-23T06:11:44.656Z,100.00
2022-10-23T06:14:17.948Z,100.00
2022-10-23T06:16:45.066Z,100.00
2022-10-23T06:19:13.107Z,100.00
2022-10-23T06:21:42.049Z,100.00
2022-10-23T06:24:12.299Z,100.00
2022-10-23T06:26:54.268Z,100.00
2022-10-23T06:29:27.932Z,100.00
2022-10-23T06:31:55.356Z,100.00
2022-10-23T06:34:23.118Z,100.00
2022-10-23T06:36:50.315Z,100.00
2022-10-23T06:39:32.313Z,100.00
2022-10-23T06:42:14.879Z,100.00
2022-10-23T06:45:06.254Z,100.00
2022-10-23T06:47:53.453Z,100.00
2022-10-23T06:50:52.881Z,100.00
2022-10-23T06:53:27.838Z,100.00
2022-10-23T06:56:06.274Z,100.00
2022-10-23T06:58:37.331Z,100.00
2022-10-23T07:01:13.603Z,100.00
2022-10-23T07:03:42.766Z,100.00
2022-10-23T07:06:15.649Z,100.00
2022-10-23T07:08:42.843Z,100.00
2022-10-23T07:11:29.808Z,100.00
2022-10-23T07:13:58.062Z,100.00
2022-10-23T07:16:25.161Z,100.00
2022-10-23T07:18:59.223Z,100.00
2022-10-23T07:21:30.919Z,100.00
2022-10-23T07:24:13.785Z,100.00
2022-10-23T07:26:41.513Z,99.91
2022-10-23T07:29:09.009Z,99.85
2022-10-23T07:31:36.294Z,100.00
2022-10-23T07:34:32.625Z,100.00
2022-10-23T07:37:14.771Z,100.00
2022-10-23T07:39:41.911Z,98.16
2022-10-23T07:42:09.776Z,96.99
2022-10-23T07:44:36.824Z,95.82
2022-10-23T07:47:04.120Z,94.52
2022-10-23T07:49:31.122Z,94.14
2022-10-23T07:51:58.836Z,93.16
2022-10-23T07:54:32.969Z,88.65
2022-10-23T07:57:20.324Z,86.82
2022-10-23T07:59:56.044Z,85.79
2022-10-23T08:02:24.400Z,83.93
2022-10-23T08:04:52.950Z,82.67
2022-10-23T08:07:40.721Z,83.11
2022-10-23T08:10:08.046Z,83.64
2022-10-23T08:12:37.488Z,81.56
2022-10-23T08:15:05.139Z,81.30
2022-10-23T08:17:42.719Z,80.98
2022-10-23T08:20:16.165Z,81.82
2022-10-23T08:22:45.181Z,82.11
2022-10-23T08:25:17.743Z,81.86
2022-10-23T08:27:47.195Z,81.96
2022-10-23T08:30:15.488Z,83.69
2022-10-23T08:32:43.873Z,81.39
2022-10-23T08:35:13.787Z,82.39
2022-10-23T08:37:41.306Z,81.33
2022-10-23T08:40:18.088Z,81.50
2022-10-23T08:43:10.209Z,81.99
2022-10-23T08:45:48.438Z,81.59
2022-10-23T08:48:45.606Z,81.81
2022-10-23T08:51:41.119Z,79.56
2022-10-23T08:54:14.357Z,79.95
2022-10-23T08:56:44.345Z,80.47
2022-10-23T08:59:34.276Z,79.22
2022-10-23T09:02:04.113Z,79.04
2022-10-23T09:04:32.305Z,78.73
2022-10-23T09:07:03.785Z,77.05
2022-10-23T09:09:43.117Z,74.74
2022-10-23T09:12:12.854Z,75.24
2022-10-23T09:15:02.521Z,73.03
2022-10-23T09:17:32.173Z,75.16
2022-10-23T09:20:25.098Z,74.74
2022-10-23T09:22:59.738Z,72.16
2022-10-23T09:25:31.261Z,71.69
2022-10-23T09:28:01.523Z,69.32
2022-10-23T09:30:32.672Z,70.51
2022-10-23T09:33:12.403Z,69.58
2022-10-23T09:35:55.608Z,67.81
2022-10-23T09:38:46.266Z,67.01
2022-10-23T09:41:19.915Z,66.00
2022-10-23T09:43:47.681Z,67.30
2022-10-23T09:46:20.143Z,66.19
2022-10-23T09:48:59.881Z,66.58
2022-10-23T09:51:29.598Z,65.73
2022-10-23T09:53:59.073Z,64.98
2022-10-23T09:56:40.241Z,64.81
2022-10-23T09:59:10.798Z,63.63
2022-10-23T10:01:47.530Z,64.44
2022-10-23T10:04:42.286Z,63.92
2022-10-23T10:07:24.538Z,64.77
2022-10-23T10:09:56.922Z,63.59
2022-10-23T10:12:37.483Z,63.01
2022-10-23T10:15:14.906Z,64.72
2022-10-23T10:18:06.602Z,64.27
2022-10-23T10:20:42.634Z,65.40
2022-10-23T10:23:33.074Z,64.46
2022-10-23T10:26:23.098Z,65.24
2022-10-23T10:29:15.749Z,64.49
2022-10-23T10:32:05.918Z,64.71
2022-10-23T10:34:47.411Z,64.61
2022-10-23T10:37:53.592Z,64.11
2022-10-23T10:40:33.409Z,63.96
2022-10-23T10:43:28.442Z,64.79
2022-10-23T10:46:22.824Z,65.92
2022-10-23T10:49:00.858Z,65.86
2022-10-23T10:51:38.614Z,66.24
2022-10-23T10:54:21.825Z,65.35
2022-10-23T10:56:49.451Z,65.31
2022-10-23T10:59:28.860Z,65.33
2022-10-23T11:02:15.683Z,64.72
2022-10-23T11:04:52.842Z,64.38
2022-10-23T11:07:25.329Z,64.48
2022-10-23T11:09:53.364Z,64.46
2022-10-23T11:12:24.989Z,63.85
2022-10-23T11:14:52.860Z,64.87
2022-10-23T11:17:25.062Z,64.58
2022-10-23T11:20:15.860Z,63.41
2022-10-23T11:22:47.741Z,63.37
2022-10-23T11:25:49.314Z,62.72
2022-10-23T11:28:43.112Z,62.58
2022-10-23T11:31:34.898Z,62.71
2022-10-23T11:34:21.097Z,61.90
2022-10-23T11:36:58.426Z,62.92
2022-10-23T11:39:29.449Z,64.00
2022-10-23T11:42:31.655Z,64.42
2022-10-23T11:44:59.002Z,63.63
2022-10-23T11:47:40.563Z,64.30
2022-10-23T11:50:08.028Z,64.16
2022-10-23T11:53:12.551Z,64.10
2022-10-23T11:56:16.217Z,64.15
2022-10-23T11:58:46.879Z,64.80
2022-10-23T12:01:26.513Z,64.48
2022-10-23T12:04:12.701Z,64.60
2022-10-23T12:07:23.820Z,63.47
2022-10-23T12:09:57.812Z,63.12
2022-10-23T12:12:34.246Z,63.63
2022-10-23T12:15:18.804Z,62.42
2022-10-23T12:17:48.262Z,63.13
2022-10-23T12:20:25.753Z,63.34
2022-10-23T12:23:20.905Z,63.61
2022-10-23T12:26:18.860Z,63.12
2022-10-23T12:28:49.138Z,63.12
2022-10-23T12:31:25.160Z,63.01
2022-10-23T12:34:33.230Z,63.37
2022-10-23T12:37:38.519Z,63.14
2022-10-23T12:40:09.035Z,62.43
2022-10-23T12:42:37.679Z,62.21
2022-10-23T12:45:24.911Z,63.22
2022-10-23T12:47:52.719Z,63.05
2022-10-23T12:50:29.262Z,63.22
2022-10-23T12:53:00.982Z,63.17
2022-10-23T12:55:49.535Z,63.22
2022-10-23T12:58:26.154Z,63.51
2022-10-23T13:00:59.365Z,63.27
2022-10-23T13:03:28.984Z,63.50
2022-10-23T13:05:58.785Z,64.36
2022-10-23T13:08:33.614Z,63.82
2022-10-23T13:11:20.717Z,63.84
2022-10-23T13:13:50.501Z,63.28
2022-10-23T13:16:21.190Z,63.99
2022-10-23T13:18:49.226Z,64.70
2022-10-23T13:21:21.940Z,65.87
2022-10-23T13:23:50.476Z,64.78
2022-10-23T13:26:35.879Z,65.13
2022-10-23T13:29:08.700Z,65.41
2022-10-23T13:31:36.981Z,65.32
2022-10-23T13:34:14.865Z,65.27
2022-10-23T13:36:53.568Z,65.25
2022-10-23T13:39:33.635Z,65.30
2022-10-23T13:42:12.657Z,65.62
2022-10-23T13:44:41.117Z,67.36
2022-10-23T13:47:17.862Z,66.26
2022-10-23T13:49:45.262Z,65.83
2022-10-23T13:52:15.306Z,65.79
2022-10-23T13:54:43.690Z,64.63
2022-10-23T13:57:15.558Z,65.22
2022-10-23T13:59:45.298Z,65.72
2022-10-23T14:02:19.389Z,68.21
2022-10-23T14:04:48.633Z,66.35
2022-10-23T14:07:15.983Z,65.67
2022-10-23T14:09:43.860Z,65.76
2022-10-23T14:12:12.359Z,65.50
2022-10-23T14:14:39.613Z,69.15
2022-10-23T14:17:06.941Z,67.57
2022-10-23T14:19:34.695Z,71.91
2022-10-23T14:22:01.985Z,69.96
2022-10-23T14:24:29.299Z,71.87
2022-10-23T14:26:57.600Z,70.53
2022-10-23T14:29:25.215Z,71.92
2022-10-23T14:31:52.754Z,68.60
2022-10-23T14:34:20.457Z,69.23
2022-10-23T14:37:03.878Z,71.11
2022-10-23T14:39:35.183Z,71.54
2022-10-23T14:42:02.438Z,70.53
2022-10-23T14:44:29.810Z,67.53
2022-10-23T14:46:57.167Z,67.96
2022-10-23T14:49:24.555Z,66.42
2022-10-23T14:51:51.957Z,67.65
2022-10-23T14:54:19.343Z,72.61
2022-10-23T14:56:46.711Z,73.38
2022-10-23T14:59:15.103Z,74.81
2022-10-23T15:01:47.219Z,72.57
2022-10-23T15:04:16.829Z,73.84
2022-10-23T15:06:46.275Z,72.06
2022-10-23T15:09:14.567Z,73.11
2022-10-23T15:11:42.385Z,74.49
2022-10-23T15:14:09.855Z,75.16
2022-10-23T15:16:43.167Z,75.80
2022-10-23T15:19:15.212Z,75.55
2022-10-23T15:21:46.962Z,75.89
2022-10-23T15:24:15.847Z,76.56
2022-10-23T15:26:44.672Z,76.87
2022-10-23T15:29:12.659Z,76.65
2022-10-23T15:31:42.292Z,76.79
2022-10-23T15:34:16.543Z,77.40
2022-10-23T15:36:46.732Z,78.31
2022-10-23T15:39:17.105Z,79.92
2022-10-23T15:41:44.995Z,79.93
2022-10-23T15:44:16.346Z,79.87
2022-10-23T15:46:44.078Z,81.58
2022-10-23T15:49:14.030Z,82.88
2022-10-23T15:51:41.791Z,82.64
2022-10-23T15:54:16.404Z,83.48
2022-10-23T15:56:52.033Z,83.73
2022-10-23T15:59:22.157Z,83.96
2022-10-23T16:01:50.952Z,83.81
2022-10-23T16:04:20.785Z,83.67
2022-10-23T16:06:48.762Z,83.88
2022-10-23T16:09:16.647Z,83.52
2022-10-23T16:11:44.582Z,84.51
2022-10-23T16:14:14.113Z,85.84
2022-10-23T16:16:42.055Z,85.09
2022-10-23T16:19:13.239Z,85.68
2022-10-23T16:21:41.683Z,85.41
2022-10-23T16:24:10.250Z,86.14
2022-10-23T16:26:38.454Z,86.25
2022-10-23T16:29:08.263Z,86.17
2022-10-23T16:31:37.202Z,86.36
2022-10-23T16:34:06.083Z,86.15
2022-10-23T16:36:34.386Z,86.74
2022-10-23T16:39:24.903Z,86.87
2022-10-23T16:42:10.690Z,87.42
2022-10-23T16:45:04.483Z,88.36
2022-10-23T16:47:32.095Z,88.66
2022-10-23T16:49:59.967Z,88.61
2022-10-23T16:52:28.299Z,88.15
2022-10-23T16:54:55.926Z,88.47
2022-10-23T16:57:24.085Z,88.78
2022-10-23T16:59:51.403Z,89.15
2022-10-23T17:02:20.321Z,88.61
2022-10-23T17:04:50.014Z,88.68
2022-10-23T17:07:18.360Z,89.78
2022-10-23T17:09:46.572Z,89.55
2022-10-23T17:12:14.323Z,90.03
2022-10-23T17:14:42.552Z,90.26
2022-10-23T17:17:09.922Z,90.45
2022-10-23T17:19:45.079Z,90.74
2022-10-23T17:22:13.548Z,90.56
2022-10-23T17:24:47.525Z,90.61
2022-10-23T17:27:17.865Z,89.58
2022-10-23T17:29:45.426Z,88.45
2022-10-23T17:32:12.940Z,87.66
2022-10-23T17:34:41.185Z,88.54
2022-10-23T17:37:10.117Z,88.80
2022-10-23T17:39:37.368Z,89.35
2022-10-23T17:42:04.620Z,89.69
2022-10-23T17:44:32.593Z,89.90
2022-10-23T17:46:59.867Z,89.70
2022-10-23T17:49:27.196Z,90.11
2022-10-23T17:51:57.066Z,90.17
2022-10-23T17:54:26.444Z,90.50
2022-10-23T17:56:54.223Z,90.73
2022-10-23T17:59:21.456Z,90.92
2022-10-23T18:01:49.449Z,90.43
2022-10-23T18:04:19.132Z,90.27
2022-10-23T18:06:50.497Z,89.22
2022-10-23T18:09:18.006Z,90.30
2022-10-23T18:11:48.840Z,90.81
2022-10-23T18:14:17.757Z,91.65
2022-10-23T18:16:45.894Z,91.89
2022-10-23T18:19:15.252Z,92.39
2022-10-23T18:21:47.744Z,92.49
2022-10-23T18:24:15.263Z,93.25
2022-10-23T18:26:42.637Z,93.34
2022-10-23T18:29:11.379Z,93.93
2022-10-23T18:31:39.556Z,94.11
2022-10-23T18:34:24.719Z,94.00
2022-10-23T18:36:53.675Z,94.16
2022-10-23T18:39:23.646Z,94.04
2022-10-23T18:41:54.009Z,94.12
2022-10-23T18:44:22.876Z,94.51
2022-10-23T18:46:50.640Z,94.07
2022-10-23T18:49:18.720Z,94.62
2022-10-23T18:51:45.901Z,94.92
2022-10-23T18:54:14.507Z,94.69
2022-10-23T18:56:42.255Z,95.21
2022-10-23T18:59:14.940Z,95.49
2022-10-23T19:01:42.914Z,95.35
2022-10-23T19:04:12.764Z,95.99
2022-10-23T19:06:40.386Z,95.89
2022-10-23T19:09:09.345Z,96.04
2022-10-23T19:11:40.552Z,97.34
2022-10-23T19:14:09.816Z,97.22
2022-10-23T19:16:44.045Z,97.22
2022-10-23T19:19:18.674Z,97.33
2022-10-23T19:21:48.197Z,97.61
2022-10-23T19:24:24.051Z,97.73
2022-10-23T19:26:52.512Z,97.77
2022-10-23T19:29:22.421Z,97.96
2022-10-23T19:31:50.936Z,98.02
2022-10-23T19:34:20.546Z,98.23
2022-10-23T19:36:49.156Z,97.95
2022-10-23T19:39:18.300Z,98.55
2022-10-23T19:41:47.911Z,98.79
2022-10-23T19:44:16.445Z,99.16
2022-10-23T19:46:44.770Z,99.30
2022-10-23T19:49:12.899Z,98.94
2022-10-23T19:51:46.994Z,99.00
2022-10-23T19:54:18.914Z,99.56
2022-10-23T19:56:52.194Z,99.70
2022-10-23T19:59:20.574Z,99.07
2022-10-23T20:01:49.860Z,99.62
2022-10-23T20:04:19.278Z,99.65
2022-10-23T20:06:48.151Z,99.59
2022-10-23T20:09:16.291Z,100.00
2022-10-23T20:11:47.967Z,100.00
2022-10-23T20:14:16.722Z,100.00
2022-10-23T20:16:45.893Z,100.00
2022-10-23T20:21:50.928Z,100.00
2022-10-23T20:24:19.982Z,100.00
2022-10-23T20:26:53.848Z,100.00
2022-10-23T20:29:22.092Z,99.97
2022-10-23T20:31:49.922Z,99.39
2022-10-23T20:34:20.047Z,100.00
2022-10-23T20:36:50.161Z,100.00
2022-10-23T20:39:20.064Z,100.00
2022-10-23T20:41:48.657Z,100.00
2022-10-23T20:46:49.871Z,100.00
2022-10-23T20:49:17.061Z,100.00
2022-10-23T20:51:44.499Z,100.00
2022-10-23T20:54:11.575Z,100.00
2022-10-23T20:56:40.168Z,100.00
2022-10-23T20:59:09.860Z,100.00
2022-10-23T21:01:39.642Z,100.00
2022-10-23T21:04:06.875Z,100.00
2022-10-23T21:06:46.225Z,100.00
2022-10-23T21:09:21.775Z,100.00
2022-10-23T21:11:48.901Z,100.00
2022-10-23T21:14:15.921Z,100.00
2022-10-23T21:16:44.383Z,100.00
2022-10-23T21:19:12.794Z,100.00
2022-10-23T21:21:40.886Z,100.00
2022-10-23T21:24:09.371Z,100.00
2022-10-23T21:26:36.494Z,100.00
2022-10-23T21:29:19.770Z,100.00
2022-10-23T21:31:57.553Z,100.00
2022-10-23T21:34:25.242Z,100.00
2022-10-23T21:37:12.867Z,100.00
2022-10-23T21:39:39.705Z,100.00
2022-10-23T21:42:06.817Z,100.00
2022-10-23T21:44:33.912Z,100.00
2022-10-23T21:47:00.934Z,100.00
2022-10-23T21:49:27.996Z,100.00
2022-10-23T21:51:55.262Z,100.00
2022-10-23T21:54:22.859Z,100.00
2022-10-23T21:56:50.706Z,100.00
2022-10-23T21:59:18.947Z,100.00
2022-10-23T22:01:46.834Z,100.00
2022-10-23T22:04:15.137Z,100.00
2022-10-23T22:06:42.852Z,100.00
2022-10-23T22:09:11.343Z,100.00
2022-10-23T22:11:38.583Z,100.00
2022-10-23T22:14:05.618Z,100.00
2022-10-23T22:16:32.617Z,100.00
2022-10-23T22:18:59.696Z,100.00
2022-10-23T22:21:27.757Z,100.00
2022-10-23T22:23:55.935Z,100.00
2022-10-23T22:26:27.987Z,100.00
2022-10-23T22:28:55.836Z,100.00
2022-10-23T22:31:24.231Z,100.00
2022-10-23T22:33:51.776Z,100.00
2022-10-23T22:36:19.101Z,100.00
2022-10-23T22:38:46.113Z,100.00
2022-10-23T22:41:13.397Z,100.00
2022-10-23T22:43:40.424Z,100.00
2022-10-23T22:46:08.773Z,100.00
2022-10-23T22:48:36.140Z,100.00
2022-10-23T22:51:03.737Z,100.00
2022-10-23T22:53:31.151Z,100.00
2022-10-23T22:55:58.393Z,100.00
2022-10-23T22:58:25.633Z,100.00
2022-10-23T23:00:54.046Z,100.00
2022-10-23T23:03:21.154Z,100.00
2022-10-23T23:05:48.348Z,100.00
2022-10-23T23:08:15.365Z,100.00
2022-10-23T23:10:42.411Z,100.00
2022-10-23T23:13:09.473Z,100.00
2022-10-23T23:15:40.957Z,100.00
2022-10-23T23:18:08.090Z,100.00
2022-10-23T23:20:35.170Z,100.00
2022-10-23T23:23:02.201Z,100.00
2022-10-23T23:25:29.466Z,100.00
2022-10-23T23:27:56.476Z,100.00
2022-10-23T23:30:24.104Z,100.00
2022-10-23T23:32:51.645Z,100.00
2022-10-23T23:35:21.524Z,100.00
2022-10-23T23:37:48.710Z,100.00
2022-10-23T23:40:15.706Z,100.00
2022-10-23T23:42:43.004Z,100.00
2022-10-23T23:45:14.770Z,100.00
2022-10-23T23:47:42.600Z,100.00
2022-10-23T23:50:11.540Z,100.00
2022-10-23T23:52:38.700Z,100.00
2022-10-23T23:55:05.837Z,100.00
2022-10-23T23:57:33.028Z,100.00
